createdAt,value
2018-05-25T00:01:51.674Z,12.00
2018-05-25T00:04:19.546Z,12.30
2018-05-25T00:06:47.145Z,12.07
2018-05-25T00:09:14.960Z,12.00
2018-05-25T00:11:42.732Z,12.07
2018-05-25T00:14:10.401Z,12.40
2018-05-25T00:16:38.046Z,12.00
2018-05-25T00:19:05.679Z,12.90
2018-05-25T00:21:33.797Z,11.60
2018-05-25T00:24:01.463Z,12.50
2018-05-25T00:26:29.303Z,12.00
2018-05-25T00:28:56.813Z,11.50
2018-05-25T00:31:24.626Z,13.13
2018-05-25T00:33:52.332Z,13.60
2018-05-25T00:36:19.990Z,12.03
2018-05-25T00:38:47.556Z,12.50
2018-05-25T00:41:15.141Z,12.80
2018-05-25T00:43:43.135Z,12.80
2018-05-25T00:46:10.816Z,12.90
2018-05-25T00:48:38.455Z,12.60
2018-05-25T00:51:06.116Z,14.13
2018-05-25T00:53:33.800Z,12.70
2018-05-25T00:56:01.393Z,12.67
2018-05-25T00:58:28.916Z,12.23
2018-05-25T01:00:56.759Z,12.80
2018-05-25T01:03:24.448Z,12.60
2018-05-25T01:05:52.032Z,14.90
2018-05-25T01:08:19.655Z,13.20
2018-05-25T01:10:47.389Z,12.90
2018-05-25T01:13:15.336Z,13.40
2018-05-25T01:15:43.498Z,13.70
2018-05-25T01:18:11.180Z,12.50
2018-05-25T01:20:38.876Z,16.50
2018-05-25T01:23:06.505Z,14.03
2018-05-25T01:25:34.199Z,14.40
2018-05-25T01:28:01.856Z,13.00
2018-05-25T01:30:29.465Z,12.47
2018-05-25T01:32:57.167Z,12.50
2018-05-25T01:35:25.042Z,13.17
2018-05-25T01:37:52.717Z,13.20
2018-05-25T01:40:20.486Z,13.03
2018-05-25T01:42:48.008Z,12.57
2018-05-25T01:45:15.676Z,14.10
2018-05-25T01:47:43.341Z,16.57
2018-05-25T01:50:11.157Z,13.90
2018-05-25T01:52:38.869Z,13.20
2018-05-25T01:55:06.396Z,13.80
2018-05-25T01:57:34.605Z,12.57
2018-05-25T02:00:02.237Z,13.57
2018-05-25T02:02:29.922Z,13.50
2018-05-25T02:04:57.615Z,14.40
2018-05-25T02:07:25.399Z,17.00
2018-05-25T02:09:53.080Z,14.30
2018-05-25T02:12:20.723Z,12.53
2018-05-25T02:14:48.431Z,15.50
2018-05-25T02:17:20.137Z,14.60
2018-05-25T02:19:48.059Z,14.13
2018-05-25T02:22:15.715Z,12.23
2018-05-25T02:24:43.380Z,14.57
2018-05-25T02:27:11.112Z,13.77
2018-05-25T02:29:39.415Z,13.80
2018-05-25T02:32:06.937Z,12.30
2018-05-25T02:34:34.586Z,13.77
2018-05-25T02:37:02.196Z,15.13
2018-05-25T02:39:30.164Z,13.80
2018-05-25T02:41:57.784Z,17.43
2018-05-25T02:44:25.490Z,13.20
2018-05-25T02:46:53.027Z,13.30
2018-05-25T02:49:20.806Z,15.20
2018-05-25T02:51:48.468Z,15.97
2018-05-25T02:54:16.088Z,13.73
2018-05-25T02:56:43.784Z,13.23
2018-05-25T02:59:11.440Z,14.03
2018-05-25T03:01:39.322Z,14.00
2018-05-25T03:04:07.200Z,14.03
2018-05-25T03:06:35.052Z,15.03
2018-05-25T03:09:02.741Z,12.87
2018-05-25T03:11:30.321Z,15.30
2018-05-25T03:13:58.430Z,14.27
2018-05-25T03:16:26.106Z,16.10
2018-05-25T03:18:53.609Z,15.10
2018-05-25T03:21:21.625Z,13.30
2018-05-25T03:23:49.303Z,13.60
2018-05-25T03:26:17.363Z,14.70
2018-05-25T03:28:45.252Z,13.93
2018-05-25T03:31:12.754Z,13.03
2018-05-25T03:33:40.748Z,14.30
2018-05-25T03:36:08.430Z,14.37
2018-05-25T03:38:36.090Z,12.53
2018-05-25T03:41:03.605Z,13.73
2018-05-25T03:43:31.548Z,14.07
2018-05-25T03:45:59.221Z,13.50
2018-05-25T03:48:27.161Z,14.03
2018-05-25T03:50:54.741Z,13.80
2018-05-25T03:53:22.415Z,15.37
2018-05-25T03:55:50.065Z,14.70
2018-05-25T03:58:17.690Z,15.37
2018-05-25T04:00:56.922Z,14.63
2018-05-25T04:03:24.591Z,14.50
2018-05-25T04:05:52.214Z,15.20
2018-05-25T04:08:19.896Z,14.13
2018-05-25T04:10:47.488Z,14.10
2018-05-25T04:13:15.204Z,12.73
2018-05-25T04:15:42.872Z,13.30
2018-05-25T04:18:10.545Z,14.00
2018-05-25T04:20:38.177Z,13.30
2018-05-25T04:23:05.864Z,15.40
2018-05-25T04:25:33.698Z,12.90
2018-05-25T04:28:01.327Z,14.67
2018-05-25T04:30:29.045Z,14.63
2018-05-25T04:32:57.105Z,13.93
2018-05-25T04:35:24.972Z,13.80
2018-05-25T04:37:52.634Z,14.87
2018-05-25T04:40:20.249Z,15.87
2018-05-25T04:42:48.010Z,16.40
2018-05-25T04:45:15.609Z,13.60
2018-05-25T04:47:43.489Z,15.90
2018-05-25T04:50:11.559Z,14.37
2018-05-25T04:52:39.157Z,13.87
2018-05-25T04:55:06.848Z,15.27
2018-05-25T04:57:34.492Z,14.00
2018-05-25T05:00:02.404Z,16.87
2018-05-25T05:02:30.016Z,15.27
2018-05-25T05:04:57.959Z,13.73
2018-05-25T05:07:25.539Z,14.90
2018-05-25T05:09:53.053Z,14.33
2018-05-25T05:12:20.701Z,14.63
2018-05-25T05:14:48.540Z,14.70
2018-05-25T05:17:16.591Z,14.20
2018-05-25T05:19:44.302Z,14.40
2018-05-25T05:22:11.915Z,14.60
2018-05-25T05:24:39.820Z,13.77
2018-05-25T05:27:07.493Z,13.63
2018-05-25T05:29:35.004Z,13.53
2018-05-25T05:32:02.817Z,14.67
2018-05-25T05:34:30.677Z,14.03
2018-05-25T05:36:58.376Z,14.40
2018-05-25T05:39:26.159Z,13.50
2018-05-25T05:41:53.689Z,14.57
2018-05-25T05:44:21.357Z,13.53
2018-05-25T05:46:48.948Z,13.83
2018-05-25T05:49:16.641Z,13.93
2018-05-25T05:51:49.880Z,13.17
2018-05-25T05:54:17.489Z,12.77
2018-05-25T05:56:45.155Z,12.73
2018-05-25T05:59:12.769Z,13.23
2018-05-25T06:01:40.451Z,12.57
2018-05-25T06:04:07.964Z,13.37
2018-05-25T06:06:35.584Z,12.50
2018-05-25T06:09:03.104Z,12.87
2018-05-25T06:11:30.690Z,12.50
2018-05-25T06:13:58.320Z,13.33
2018-05-25T06:16:26.232Z,13.10
2018-05-25T06:18:53.869Z,13.23
2018-05-25T06:21:21.518Z,12.80
2018-05-25T06:23:49.187Z,11.47
2018-05-25T06:26:17.292Z,11.90
2018-05-25T06:28:44.925Z,12.40
2018-05-25T06:31:12.571Z,11.50
2018-05-25T06:33:40.472Z,11.40
2018-05-25T06:36:08.191Z,11.53
2018-05-25T06:38:36.696Z,11.17
2018-05-25T06:41:04.845Z,11.70
2018-05-25T06:43:32.533Z,11.20
2018-05-25T06:46:00.228Z,10.80
2018-05-25T06:48:27.843Z,11.30
2018-05-25T06:50:55.532Z,10.47
2018-05-25T06:53:23.244Z,11.00
2018-05-25T06:55:50.882Z,10.77
2018-05-25T06:58:18.596Z,11.00
2018-05-25T07:00:46.593Z,10.30
2018-05-25T07:03:14.259Z,10.70
2018-05-25T07:05:41.910Z,10.40
2018-05-25T07:08:09.574Z,10.60
2018-05-25T07:10:37.185Z,10.13
2018-05-25T07:13:04.890Z,10.07
2018-05-25T07:15:32.559Z,11.27
2018-05-25T07:18:00.222Z,10.63
2018-05-25T07:20:27.917Z,10.00
2018-05-25T07:22:55.626Z,10.60
2018-05-25T07:25:23.144Z,9.70
2018-05-25T07:27:50.852Z,9.70
2018-05-25T07:30:18.520Z,10.73
2018-05-25T07:32:46.132Z,10.43
2018-05-25T07:35:13.801Z,10.70
2018-05-25T07:37:41.508Z,11.00
2018-05-25T07:40:09.579Z,10.30
2018-05-25T07:42:37.237Z,9.80
2018-05-25T07:45:04.853Z,10.77
2018-05-25T07:47:32.509Z,9.37
2018-05-25T07:52:53.443Z,9.90
2018-05-25T07:55:21.117Z,10.03
2018-05-25T07:57:48.884Z,10.60
2018-05-25T08:00:16.477Z,9.50
2018-05-25T08:02:44.075Z,9.13
2018-05-25T08:05:11.795Z,10.50
2018-05-25T08:07:39.399Z,10.60
2018-05-25T08:10:07.113Z,10.10
2018-05-25T08:12:34.826Z,9.63
2018-05-25T08:15:02.332Z,9.80
2018-05-25T08:17:30.037Z,10.20
2018-05-25T08:19:57.541Z,9.67
2018-05-25T08:22:25.156Z,9.57
2018-05-25T08:24:52.933Z,10.17
2018-05-25T08:27:20.480Z,9.53
2018-05-25T08:29:48.028Z,10.03
2018-05-25T08:32:15.589Z,9.40
2018-05-25T08:34:43.255Z,9.83
2018-05-25T08:37:10.880Z,10.03
2018-05-25T08:39:38.420Z,10.07
2018-05-25T08:42:06.063Z,10.50
2018-05-25T08:44:34.104Z,10.00
2018-05-25T08:47:01.629Z,9.70
2018-05-25T08:49:29.306Z,9.20
2018-05-25T08:51:57.008Z,9.70
2018-05-25T08:54:25.229Z,10.70
2018-05-25T08:56:52.740Z,8.77
2018-05-25T08:59:20.737Z,10.37
2018-05-25T09:01:48.606Z,9.53
2018-05-25T09:04:16.209Z,9.83
2018-05-25T09:06:44.137Z,9.60
2018-05-25T09:09:11.738Z,9.63
2018-05-25T09:11:39.456Z,9.80
2018-05-25T09:14:07.061Z,9.70
2018-05-25T09:16:34.723Z,9.80
2018-05-25T09:19:02.643Z,9.80
2018-05-25T09:21:30.253Z,9.30
2018-05-25T09:23:57.908Z,9.60
2018-05-25T09:26:25.420Z,9.43
2018-05-25T09:28:53.080Z,9.40
2018-05-25T09:31:20.685Z,9.67
2018-05-25T09:33:48.604Z,8.80
2018-05-25T09:36:16.388Z,8.73
2018-05-25T09:38:43.945Z,8.93
2018-05-25T09:41:11.450Z,9.47
2018-05-25T09:43:39.425Z,9.03
2018-05-25T09:46:07.465Z,8.77
2018-05-25T09:48:35.224Z,9.37
2018-05-25T09:51:02.861Z,9.17
2018-05-25T09:53:30.541Z,9.03
2018-05-25T09:55:58.364Z,8.97
2018-05-25T09:58:26.073Z,10.20
2018-05-25T10:00:53.893Z,9.77
2018-05-25T10:03:21.543Z,9.57
2018-05-25T10:05:49.417Z,9.50
2018-05-25T10:08:16.933Z,9.57
2018-05-25T10:10:44.498Z,9.33
2018-05-25T10:13:12.015Z,9.80
2018-05-25T10:15:39.663Z,9.47
2018-05-25T10:18:07.394Z,8.70
2018-05-25T10:20:35.535Z,9.73
2018-05-25T10:23:03.149Z,9.50
2018-05-25T10:25:30.996Z,9.07
2018-05-25T10:27:58.986Z,8.70
2018-05-25T10:30:26.739Z,9.40
2018-05-25T10:32:54.282Z,9.30
2018-05-25T10:35:21.965Z,9.50
2018-05-25T10:37:49.621Z,9.40
2018-05-25T10:40:17.292Z,9.03
2018-05-25T10:42:45.158Z,9.33
2018-05-25T10:45:12.793Z,8.17
2018-05-25T10:47:40.422Z,8.97
2018-05-25T10:50:08.116Z,8.90
2018-05-25T10:52:35.613Z,9.17
2018-05-25T10:55:03.126Z,8.43
2018-05-25T10:57:31.137Z,8.37
2018-05-25T10:59:58.696Z,9.00
2018-05-25T11:02:26.417Z,9.00
2018-05-25T11:04:54.065Z,9.40
2018-05-25T11:07:21.593Z,8.33
2018-05-25T11:09:49.212Z,8.37
2018-05-25T11:12:16.861Z,10.00
2018-05-25T11:14:44.913Z,9.30
2018-05-25T11:17:12.608Z,8.60
2018-05-25T11:19:40.268Z,8.63
2018-05-25T11:22:07.901Z,8.93
2018-05-25T11:24:35.409Z,8.87
2018-05-25T11:27:03.066Z,8.97
2018-05-25T11:29:30.657Z,9.43
2018-05-25T11:31:58.325Z,9.23
2018-05-25T11:34:26.053Z,8.47
2018-05-25T11:36:53.644Z,8.80
2018-05-25T11:39:21.306Z,8.97
2018-05-25T11:41:48.993Z,8.37
2018-05-25T11:44:16.682Z,8.70
2018-05-25T11:46:44.280Z,9.73
2018-05-25T11:49:11.948Z,8.53
2018-05-25T11:51:39.636Z,8.70
2018-05-25T11:54:07.140Z,8.90
2018-05-25T11:56:34.653Z,9.47
2018-05-25T11:59:02.702Z,9.10
2018-05-25T12:01:30.453Z,9.23
2018-05-25T12:03:57.960Z,9.10
2018-05-25T12:06:25.573Z,8.93
2018-05-25T12:08:53.234Z,9.30
2018-05-25T12:11:20.899Z,9.23
2018-05-25T12:13:48.564Z,8.80
2018-05-25T12:16:16.273Z,8.50
2018-05-25T12:18:43.884Z,8.60
2018-05-25T12:21:11.532Z,9.07
2018-05-25T12:23:39.051Z,8.10
2018-05-25T12:26:06.705Z,7.93
2018-05-25T12:28:34.244Z,8.50
2018-05-25T12:31:02.189Z,8.90
2018-05-25T12:33:29.929Z,8.80
2018-05-25T12:35:57.513Z,9.20
2018-05-25T12:38:25.298Z,8.97
2018-05-25T12:40:53.513Z,8.47
2018-05-25T12:43:21.213Z,8.33
2018-05-25T12:45:48.977Z,8.70
2018-05-25T12:48:16.628Z,8.70
2018-05-25T12:50:44.347Z,9.50
2018-05-25T12:53:12.000Z,8.90
2018-05-25T12:55:39.617Z,8.50
2018-05-25T12:58:07.281Z,9.10
2018-05-25T13:00:34.980Z,8.20
2018-05-25T13:03:02.610Z,8.53
2018-05-25T13:05:30.333Z,8.93
2018-05-25T13:07:57.973Z,8.80
2018-05-25T13:10:26.468Z,8.77
2018-05-25T13:12:54.104Z,8.70
2018-05-25T13:15:21.973Z,8.47
2018-05-25T13:17:49.648Z,9.40
2018-05-25T13:20:17.296Z,9.50
2018-05-25T13:22:44.946Z,8.17
2018-05-25T13:25:12.623Z,9.00
2018-05-25T13:27:40.277Z,8.60
2018-05-25T13:30:07.916Z,8.43
2018-05-25T13:32:35.621Z,8.60
2018-05-25T13:35:03.321Z,8.40
2018-05-25T13:37:30.928Z,7.90
2018-05-25T13:39:58.794Z,8.70
2018-05-25T13:42:26.464Z,8.60
2018-05-25T13:44:54.272Z,9.10
2018-05-25T13:47:26.460Z,8.97
2018-05-25T13:49:54.096Z,8.43
2018-05-25T13:52:21.775Z,8.77
2018-05-25T13:54:56.093Z,8.77
2018-05-25T13:57:24.245Z,8.90
2018-05-25T13:59:51.960Z,8.80
2018-05-25T14:02:19.736Z,8.27
2018-05-25T14:04:47.277Z,8.33
2018-05-25T14:07:15.121Z,8.60
2018-05-25T14:09:42.754Z,7.67
2018-05-25T14:12:10.674Z,8.90
2018-05-25T14:14:38.341Z,8.70
2018-05-25T14:17:06.220Z,8.63
2018-05-25T14:19:33.812Z,8.80
2018-05-25T14:22:01.509Z,8.57
2018-05-25T14:24:29.137Z,8.83
2018-05-25T14:26:56.845Z,8.67
2018-05-25T14:29:24.455Z,9.37
2018-05-25T14:31:51.977Z,8.20
2018-05-25T14:34:19.569Z,9.07
2018-05-25T14:36:47.224Z,8.80
2018-05-25T14:39:14.942Z,9.10
2018-05-25T14:41:42.604Z,8.47
2018-05-25T14:44:10.321Z,8.13
2018-05-25T14:46:37.874Z,7.90
2018-05-25T14:49:05.545Z,8.63
2018-05-25T14:51:33.264Z,8.47
2018-05-25T14:54:01.365Z,8.50
2018-05-25T14:56:29.125Z,8.40
2018-05-25T14:58:56.804Z,7.27
2018-05-25T15:01:24.523Z,8.10
2018-05-25T15:03:52.366Z,8.50
2018-05-25T15:06:19.973Z,7.70
2018-05-25T15:08:47.652Z,8.27
2018-05-25T15:11:15.369Z,8.47
2018-05-25T15:13:42.984Z,8.80
2018-05-25T15:16:10.629Z,8.23
2018-05-25T15:18:38.440Z,7.97
2018-05-25T15:21:05.960Z,8.83
2018-05-25T15:23:33.669Z,7.53
2018-05-25T15:26:01.284Z,8.00
2018-05-25T15:28:29.338Z,8.33
2018-05-25T15:30:57.196Z,8.17
2018-05-25T15:33:25.192Z,8.20
2018-05-25T15:35:53.393Z,7.90
2018-05-25T15:38:21.006Z,8.13
2018-05-25T15:40:48.529Z,8.03
2018-05-25T15:43:16.193Z,8.43
2018-05-25T15:45:43.762Z,8.90
2018-05-25T15:48:11.269Z,8.90
2018-05-25T15:50:38.950Z,8.00
2018-05-25T15:53:06.632Z,8.13
2018-05-25T15:55:34.236Z,7.90
2018-05-25T15:58:01.773Z,7.63
2018-05-25T16:00:29.280Z,8.20
2018-05-25T16:02:56.875Z,8.30
2018-05-25T16:05:24.715Z,8.57
2018-05-25T16:07:52.221Z,8.70
2018-05-25T16:10:19.825Z,8.60
2018-05-25T16:12:47.508Z,7.60
2018-05-25T16:15:15.026Z,7.20
2018-05-25T16:17:43.036Z,8.03
2018-05-25T16:20:10.625Z,7.10
2018-05-25T16:22:38.166Z,7.60
2018-05-25T16:25:06.615Z,7.87
2018-05-25T16:27:34.225Z,7.07
2018-05-25T16:30:01.940Z,7.57
2018-05-25T16:32:29.549Z,8.07
2018-05-25T16:34:57.213Z,7.60
2018-05-25T16:37:24.871Z,7.93
2018-05-25T16:39:52.529Z,7.80
2018-05-25T16:42:20.039Z,7.67
2018-05-25T16:44:47.649Z,7.30
2018-05-25T16:47:15.364Z,7.70
2018-05-25T16:49:44.604Z,7.10
2018-05-25T16:52:12.325Z,7.57
2018-05-25T16:54:39.925Z,7.60
2018-05-25T16:57:07.657Z,7.53
2018-05-25T16:59:35.324Z,7.20
2018-05-25T17:02:02.916Z,7.07
2018-05-25T17:04:30.573Z,7.00
2018-05-25T17:06:58.161Z,7.47
2018-05-25T17:09:26.101Z,7.00
2018-05-25T17:11:53.636Z,7.90
2018-05-25T17:14:21.273Z,7.20
2018-05-25T17:16:48.925Z,7.43
2018-05-25T17:19:16.564Z,6.80
2018-05-25T17:21:44.195Z,6.93
2018-05-25T17:24:12.112Z,7.20
2018-05-25T17:26:39.737Z,7.10
2018-05-25T17:29:07.393Z,7.30
2018-05-25T17:31:35.052Z,7.47
2018-05-25T17:34:02.705Z,7.00
2018-05-25T17:36:30.374Z,7.47
2018-05-25T17:38:58.087Z,6.90
2018-05-25T17:41:25.692Z,6.57
2018-05-25T17:43:53.354Z,6.60
2018-05-25T17:46:20.945Z,7.33
2018-05-25T17:48:48.960Z,7.50
2018-05-25T17:51:16.745Z,7.10
2018-05-25T17:53:44.286Z,7.00
2018-05-25T17:56:12.122Z,6.63
2018-05-25T17:58:39.779Z,6.53
2018-05-25T18:01:07.317Z,6.60
2018-05-25T18:03:35.467Z,7.50
2018-05-25T18:06:02.987Z,6.77
2018-05-25T18:08:30.829Z,6.90
2018-05-25T18:10:58.433Z,6.60
2018-05-25T18:13:25.938Z,6.73
2018-05-25T18:15:53.445Z,6.80
2018-05-25T18:18:21.273Z,6.27
2018-05-25T18:20:48.872Z,7.50
2018-05-25T18:23:16.799Z,6.90
2018-05-25T18:25:44.461Z,6.67
2018-05-25T18:28:12.328Z,7.80
2018-05-25T18:30:39.848Z,7.43
2018-05-25T18:33:08.270Z,5.87
2018-05-25T18:35:35.925Z,6.93
2018-05-25T18:38:03.585Z,6.63
2018-05-25T18:40:31.215Z,6.60
2018-05-25T18:42:58.845Z,6.20
2018-05-25T18:45:26.537Z,7.00
2018-05-25T18:47:54.243Z,6.77
2018-05-25T18:50:21.894Z,6.87
2018-05-25T18:52:49.749Z,6.70
2018-05-25T18:55:17.385Z,6.43
2018-05-25T18:57:45.093Z,6.30
2018-05-25T19:00:12.609Z,6.43
2018-05-25T19:02:41.005Z,6.73
2018-05-25T19:05:08.724Z,6.37
2018-05-25T19:07:36.229Z,6.20
2018-05-25T19:10:03.821Z,6.30
2018-05-25T19:12:31.397Z,6.17
2018-05-25T19:14:59.006Z,6.33
2018-05-25T19:17:26.571Z,6.67
2018-05-25T19:19:54.299Z,5.90
2018-05-25T19:22:22.029Z,7.03
2018-05-25T19:24:49.762Z,6.43
2018-05-25T19:27:17.289Z,6.57
2018-05-25T19:29:45.200Z,6.63
2018-05-25T19:32:12.940Z,6.67
2018-05-25T19:34:40.609Z,7.00
2018-05-25T19:37:08.267Z,6.63
2018-05-25T19:39:35.921Z,6.43
2018-05-25T19:42:03.557Z,6.57
2018-05-25T19:44:31.265Z,6.53
2018-05-25T19:46:58.900Z,6.27
2018-05-25T19:49:26.567Z,6.30
2018-05-25T19:51:54.233Z,6.90
2018-05-25T19:54:21.888Z,6.30
2018-05-25T19:56:49.424Z,6.10
2018-05-25T19:59:17.434Z,5.67
2018-05-25T20:01:45.265Z,7.47
2018-05-25T20:04:12.889Z,5.90
2018-05-25T20:06:40.562Z,6.07
2018-05-25T20:09:08.228Z,6.37
2018-05-25T20:11:35.729Z,6.33
2018-05-25T20:14:03.360Z,6.33
2018-05-25T20:16:50.505Z,6.07
2018-05-25T20:19:18.360Z,6.10
2018-05-25T20:21:46.045Z,6.53
2018-05-25T20:24:13.710Z,7.00
2018-05-25T20:26:41.429Z,6.43
2018-05-25T20:29:09.627Z,6.10
2018-05-25T20:31:37.281Z,6.47
2018-05-25T20:34:05.012Z,6.27
2018-05-25T20:36:32.960Z,7.00
2018-05-25T20:39:00.461Z,5.87
2018-05-25T20:41:28.140Z,6.33
2018-05-25T20:43:55.806Z,6.20
2018-05-25T20:46:23.404Z,5.87
2018-05-25T20:48:50.920Z,5.60
2018-05-25T20:51:18.716Z,6.07
2018-05-25T20:53:46.526Z,6.30
2018-05-25T20:56:14.043Z,5.90
2018-05-25T20:58:41.552Z,5.90
2018-05-25T21:01:09.129Z,6.17
2018-05-25T21:03:36.841Z,5.53
2018-05-25T21:06:04.540Z,6.33
2018-05-25T21:08:32.154Z,6.60
2018-05-25T21:10:59.657Z,6.20
2018-05-25T21:13:27.313Z,5.73
2018-05-25T21:15:54.973Z,5.57
2018-05-25T21:18:22.633Z,5.73
2018-05-25T21:20:50.505Z,6.03
2018-05-25T21:23:18.050Z,5.80
2018-05-25T21:25:45.616Z,6.77
2018-05-25T21:28:13.308Z,6.00
2018-05-25T21:30:40.838Z,6.10
2018-05-25T21:33:08.392Z,5.90
2018-05-25T21:35:36.010Z,6.00
2018-05-25T21:38:03.660Z,5.70
2018-05-25T21:40:31.189Z,5.70
2018-05-25T21:42:59.044Z,5.97
2018-05-25T21:45:26.911Z,6.40
2018-05-25T21:47:54.731Z,6.03
2018-05-25T21:50:22.312Z,5.73
2018-05-25T21:52:50.452Z,6.27
2018-05-25T21:55:18.143Z,5.20
2018-05-25T21:57:45.835Z,6.40
2018-05-25T22:00:13.458Z,6.23
2018-05-25T22:02:41.171Z,6.33
2018-05-25T22:05:08.821Z,5.73
2018-05-25T22:07:36.426Z,5.53
2018-05-25T22:10:04.085Z,6.57
2018-05-25T22:12:31.695Z,5.83
2018-05-25T22:14:59.254Z,5.77
2018-05-25T22:17:26.905Z,6.93
2018-05-25T22:19:54.528Z,7.10
2018-05-25T22:22:22.925Z,6.70
2018-05-25T22:24:50.866Z,6.20
2018-05-25T22:27:18.653Z,6.03
2018-05-25T22:29:46.600Z,6.70
2018-05-25T22:32:14.305Z,6.40
2018-05-25T22:34:42.179Z,5.30
2018-05-25T22:37:09.899Z,6.60
2018-05-25T22:39:37.520Z,6.50
2018-05-25T22:42:04.633Z,7.03
2018-05-25T22:44:43.968Z,6.97
2018-05-25T22:47:23.340Z,6.77
2018-05-25T22:50:02.913Z,6.63
2018-05-25T22:52:35.608Z,5.83
2018-05-25T22:55:19.277Z,7.00
2018-05-25T22:57:46.797Z,6.30
2018-05-25T23:00:14.301Z,6.60
2018-05-25T23:02:41.920Z,6.80
2018-05-25T23:05:09.965Z,6.70
2018-05-25T23:07:37.485Z,6.57
2018-05-25T23:10:05.547Z,6.53
2018-05-25T23:12:33.068Z,6.57
2018-05-25T23:15:01.228Z,6.90
2018-05-25T23:17:28.884Z,6.70
2018-05-25T23:19:56.465Z,7.00
2018-05-25T23:22:24.086Z,6.83
2018-05-25T23:24:51.600Z,7.70
2018-05-25T23:27:19.392Z,6.00
2018-05-25T23:29:46.895Z,6.50
2018-05-25T23:32:14.825Z,7.53
2018-05-25T23:34:42.592Z,6.80
2018-05-25T23:37:10.173Z,7.03
2018-05-25T23:39:38.036Z,6.30
2018-05-25T23:42:05.769Z,6.80
2018-05-25T23:44:33.624Z,7.33
2018-05-25T23:47:01.503Z,6.50
2018-05-25T23:49:29.290Z,6.90
2018-05-25T23:51:56.956Z,6.77
2018-05-25T23:54:24.612Z,7.10
2018-05-25T23:56:52.113Z,7.10
2018-05-25T23:59:19.780Z,6.03
